sensor_id;sensor_type;location;lat;lon;timestamp;P1;durP1;ratioP1;P2;durP2;ratioP2
38972;SDS011;25333;50.762;4.470;2023-04-12T00:02:22;2.57;;;0.60;;
38972;SDS011;25333;50.762;4.470;2023-04-12T00:04:48;3.67;;;0.50;;
38972;SDS011;25333;50.762;4.470;2023-04-12T00:07:19;3.47;;;0.40;;
38972;SDS011;25333;50.762;4.470;2023-04-12T00:09:47;1.85;;;0.60;;
38972;SDS011;25333;50.762;4.470;2023-04-12T00:12:13;2.23;;;0.53;;
38972;SDS011;25333;50.762;4.470;2023-04-12T00:14:38;4.28;;;0.43;;
38972;SDS011;25333;50.762;4.470;2023-04-12T00:17:04;2.37;;;0.30;;
38972;SDS011;25333;50.762;4.470;2023-04-12T00:19:30;3.63;;;0.70;;
38972;SDS011;25333;50.762;4.470;2023-04-12T00:21:55;2.67;;;0.67;;
38972;SDS011;25333;50.762;4.470;2023-04-12T00:24:21;0.85;;;0.40;;
38972;SDS011;25333;50.762;4.470;2023-04-12T00:26:47;1.98;;;0.70;;
38972;SDS011;25333;50.762;4.470;2023-04-12T00:29:14;2.37;;;0.57;;
38972;SDS011;25333;50.762;4.470;2023-04-12T00:31:41;2.03;;;0.85;;
38972;SDS011;25333;50.762;4.470;2023-04-12T00:34:06;2.90;;;0.70;;
38972;SDS011;25333;50.762;4.470;2023-04-12T00:36:32;3.63;;;0.30;;
38972;SDS011;25333;50.762;4.470;2023-04-12T00:38:57;1.67;;;0.45;;
38972;SDS011;25333;50.762;4.470;2023-04-12T00:41:24;1.97;;;0.43;;
38972;SDS011;25333;50.762;4.470;2023-04-12T00:43:50;2.10;;;0.65;;
38972;SDS011;25333;50.762;4.470;2023-04-12T00:46:16;2.03;;;0.60;;
38972;SDS011;25333;50.762;4.470;2023-04-12T00:48:43;4.00;;;0.40;;
38972;SDS011;25333;50.762;4.470;2023-04-12T00:51:11;4.10;;;0.73;;
38972;SDS011;25333;50.762;4.470;2023-04-12T00:53:37;3.15;;;0.65;;
38972;SDS011;25333;50.762;4.470;2023-04-12T00:56:04;1.77;;;0.70;;
38972;SDS011;25333;50.762;4.470;2023-04-12T00:58:31;2.10;;;0.60;;
38972;SDS011;25333;50.762;4.470;2023-04-12T01:00:57;3.67;;;0.70;;
38972;SDS011;25333;50.762;4.470;2023-04-12T01:03:22;1.15;;;0.30;;
38972;SDS011;25333;50.762;4.470;2023-04-12T01:13:51;3.00;;;0.73;;
38972;SDS011;25333;50.762;4.470;2023-04-12T01:16:27;1.70;;;0.60;;
38972;SDS011;25333;50.762;4.470;2023-04-12T01:19:01;4.65;;;0.63;;
38972;SDS011;25333;50.762;4.470;2023-04-12T01:21:39;4.00;;;0.60;;
38972;SDS011;25333;50.762;4.470;2023-04-12T01:24:25;1.57;;;0.73;;
38972;SDS011;25333;50.762;4.470;2023-04-12T01:27:02;2.33;;;0.70;;
38972;SDS011;25333;50.762;4.470;2023-04-12T01:29:35;2.65;;;0.60;;
38972;SDS011;25333;50.762;4.470;2023-04-12T01:32:01;3.30;;;0.77;;
38972;SDS011;25333;50.762;4.470;2023-04-12T01:34:30;5.18;;;0.70;;
38972;SDS011;25333;50.762;4.470;2023-04-12T01:36:57;4.13;;;0.70;;
38972;SDS011;25333;50.762;4.470;2023-04-12T01:39:27;2.10;;;0.63;;
38972;SDS011;25333;50.762;4.470;2023-04-12T01:41:53;4.13;;;0.63;;
38972;SDS011;25333;50.762;4.470;2023-04-12T01:44:19;3.20;;;0.85;;
38972;SDS011;25333;50.762;4.470;2023-04-12T01:46:45;4.00;;;0.93;;
38972;SDS011;25333;50.762;4.470;2023-04-12T01:49:12;2.63;;;0.55;;
38972;SDS011;25333;50.762;4.470;2023-04-12T01:54:16;1.75;;;0.55;;
38972;SDS011;25333;50.762;4.470;2023-04-12T01:56:46;1.70;;;0.70;;
38972;SDS011;25333;50.762;4.470;2023-04-12T01:59:17;4.57;;;0.90;;
38972;SDS011;25333;50.762;4.470;2023-04-12T02:01:44;4.65;;;0.90;;
38972;SDS011;25333;50.762;4.470;2023-04-12T02:04:11;2.90;;;0.70;;
38972;SDS011;25333;50.762;4.470;2023-04-12T02:06:37;2.30;;;0.63;;
38972;SDS011;25333;50.762;4.470;2023-04-12T02:09:04;1.90;;;0.60;;
38972;SDS011;25333;50.762;4.470;2023-04-12T02:11:30;4.53;;;1.08;;
38972;SDS011;25333;50.762;4.470;2023-04-12T02:13:56;3.73;;;0.57;;
38972;SDS011;25333;50.762;4.470;2023-04-12T02:16:21;3.58;;;0.70;;
38972;SDS011;25333;50.762;4.470;2023-04-12T02:18:48;1.27;;;0.52;;
38972;SDS011;25333;50.762;4.470;2023-04-12T02:21:14;5.35;;;0.50;;
38972;SDS011;25333;50.762;4.470;2023-04-12T02:23:40;1.40;;;0.50;;
38972;SDS011;25333;50.762;4.470;2023-04-12T02:26:08;1.60;;;0.50;;
38972;SDS011;25333;50.762;4.470;2023-04-12T02:28:36;1.80;;;0.53;;
38972;SDS011;25333;50.762;4.470;2023-04-12T02:31:05;2.00;;;0.40;;
38972;SDS011;25333;50.762;4.470;2023-04-12T02:33:31;1.63;;;0.70;;
38972;SDS011;25333;50.762;4.470;2023-04-12T02:35:57;1.80;;;0.75;;
38972;SDS011;25333;50.762;4.470;2023-04-12T02:38:23;3.08;;;0.57;;
38972;SDS011;25333;50.762;4.470;2023-04-12T02:40:49;3.17;;;1.10;;
38972;SDS011;25333;50.762;4.470;2023-04-12T02:43:14;6.00;;;0.77;;
38972;SDS011;25333;50.762;4.470;2023-04-12T02:45:40;1.77;;;0.50;;
38972;SDS011;25333;50.762;4.470;2023-04-12T02:48:06;2.30;;;0.60;;
38972;SDS011;25333;50.762;4.470;2023-04-12T02:50:31;3.78;;;0.90;;
38972;SDS011;25333;50.762;4.470;2023-04-12T02:52:57;2.83;;;0.60;;
38972;SDS011;25333;50.762;4.470;2023-04-12T02:55:23;4.55;;;0.90;;
38972;SDS011;25333;50.762;4.470;2023-04-12T02:57:49;2.92;;;1.15;;
38972;SDS011;25333;50.762;4.470;2023-04-12T03:00:15;3.63;;;0.80;;
38972;SDS011;25333;50.762;4.470;2023-04-12T03:02:41;3.42;;;1.30;;
38972;SDS011;25333;50.762;4.470;2023-04-12T03:05:08;3.47;;;1.13;;
38972;SDS011;25333;50.762;4.470;2023-04-12T03:07:34;4.32;;;0.75;;
38972;SDS011;25333;50.762;4.470;2023-04-12T03:10:00;3.83;;;1.00;;
38972;SDS011;25333;50.762;4.470;2023-04-12T03:12:26;3.40;;;0.90;;
38972;SDS011;25333;50.762;4.470;2023-04-12T03:14:53;3.80;;;1.00;;
38972;SDS011;25333;50.762;4.470;2023-04-12T03:17:18;2.25;;;1.13;;
38972;SDS011;25333;50.762;4.470;2023-04-12T03:19:44;3.40;;;0.80;;
38972;SDS011;25333;50.762;4.470;2023-04-12T03:22:10;3.78;;;1.05;;
38972;SDS011;25333;50.762;4.470;2023-04-12T03:24:35;2.30;;;0.70;;
38972;SDS011;25333;50.762;4.470;2023-04-12T03:27:01;4.30;;;0.87;;
38972;SDS011;25333;50.762;4.470;2023-04-12T03:29:29;2.33;;;0.80;;
38972;SDS011;25333;50.762;4.470;2023-04-12T03:31:55;5.15;;;1.02;;
38972;SDS011;25333;50.762;4.470;2023-04-12T03:34:22;3.55;;;0.75;;
38972;SDS011;25333;50.762;4.470;2023-04-12T03:36:49;3.35;;;0.63;;
38972;SDS011;25333;50.762;4.470;2023-04-12T03:39:15;3.47;;;0.50;;
38972;SDS011;25333;50.762;4.470;2023-04-12T03:41:41;3.23;;;0.90;;
38972;SDS011;25333;50.762;4.470;2023-04-12T03:44:06;2.80;;;0.77;;
38972;SDS011;25333;50.762;4.470;2023-04-12T03:46:32;3.10;;;1.02;;
38972;SDS011;25333;50.762;4.470;2023-04-12T03:48:58;2.15;;;0.70;;
38972;SDS011;25333;50.762;4.470;2023-04-12T03:51:24;3.03;;;0.80;;
38972;SDS011;25333;50.762;4.470;2023-04-12T03:53:51;2.17;;;0.60;;
38972;SDS011;25333;50.762;4.470;2023-04-12T03:56:18;1.98;;;0.80;;
38972;SDS011;25333;50.762;4.470;2023-04-12T03:58:45;5.10;;;0.90;;
38972;SDS011;25333;50.762;4.470;2023-04-12T04:01:11;2.50;;;0.60;;
38972;SDS011;25333;50.762;4.470;2023-04-12T04:03:38;2.38;;;0.75;;
38972;SDS011;25333;50.762;4.470;2023-04-12T04:06:05;2.45;;;0.50;;
38972;SDS011;25333;50.762;4.470;2023-04-12T04:08:31;3.58;;;0.45;;
38972;SDS011;25333;50.762;4.470;2023-04-12T04:10:58;1.55;;;0.30;;
38972;SDS011;25333;50.762;4.470;2023-04-12T04:13:24;1.90;;;0.50;;
38972;SDS011;25333;50.762;4.470;2023-04-12T04:15:50;1.60;;;0.50;;
38972;SDS011;25333;50.762;4.470;2023-04-12T04:18:23;2.35;;;0.50;;
38972;SDS011;25333;50.762;4.470;2023-04-12T04:20:48;1.35;;;0.47;;
38972;SDS011;25333;50.762;4.470;2023-04-12T04:23:14;1.20;;;0.30;;
38972;SDS011;25333;50.762;4.470;2023-04-12T04:25:41;0.98;;;0.30;;
38972;SDS011;25333;50.762;4.470;2023-04-12T04:28:07;2.17;;;0.40;;
38972;SDS011;25333;50.762;4.470;2023-04-12T04:30:33;2.00;;;0.40;;
38972;SDS011;25333;50.762;4.470;2023-04-12T04:33:02;1.50;;;0.40;;
38972;SDS011;25333;50.762;4.470;2023-04-12T04:35:28;1.15;;;0.40;;
38972;SDS011;25333;50.762;4.470;2023-04-12T04:37:55;3.17;;;0.60;;
38972;SDS011;25333;50.762;4.470;2023-04-12T04:40:21;2.63;;;0.82;;
38972;SDS011;25333;50.762;4.470;2023-04-12T04:42:48;1.73;;;0.50;;
38972;SDS011;25333;50.762;4.470;2023-04-12T04:45:24;1.27;;;0.30;;
38972;SDS011;25333;50.762;4.470;2023-04-12T04:47:51;1.30;;;0.20;;
38972;SDS011;25333;50.762;4.470;2023-04-12T04:50:22;1.10;;;0.20;;
38972;SDS011;25333;50.762;4.470;2023-04-12T04:52:50;0.90;;;0.30;;
38972;SDS011;25333;50.762;4.470;2023-04-12T04:55:16;1.03;;;0.37;;
38972;SDS011;25333;50.762;4.470;2023-04-12T04:57:42;1.70;;;0.40;;
38972;SDS011;25333;50.762;4.470;2023-04-12T05:00:08;2.20;;;0.30;;
38972;SDS011;25333;50.762;4.470;2023-04-12T05:02:38;0.63;;;0.23;;
38972;SDS011;25333;50.762;4.470;2023-04-12T05:05:07;0.82;;;0.20;;
38972;SDS011;25333;50.762;4.470;2023-04-12T05:07:33;1.48;;;0.40;;
38972;SDS011;25333;50.762;4.470;2023-04-12T05:10:00;1.30;;;0.40;;
38972;SDS011;25333;50.762;4.470;2023-04-12T05:12:26;0.82;;;0.22;;
38972;SDS011;25333;50.762;4.470;2023-04-12T05:14:52;1.00;;;0.30;;
38972;SDS011;25333;50.762;4.470;2023-04-12T05:17:17;2.40;;;0.30;;
38972;SDS011;25333;50.762;4.470;2023-04-12T05:19:43;1.77;;;0.30;;
38972;SDS011;25333;50.762;4.470;2023-04-12T05:22:09;1.07;;;0.37;;
38972;SDS011;25333;50.762;4.470;2023-04-12T05:24:34;0.90;;;0.20;;
38972;SDS011;25333;50.762;4.470;2023-04-12T05:27:01;1.77;;;0.27;;
38972;SDS011;25333;50.762;4.470;2023-04-12T05:29:26;1.73;;;0.60;;
38972;SDS011;25333;50.762;4.470;2023-04-12T05:31:52;1.53;;;0.40;;
38972;SDS011;25333;50.762;4.470;2023-04-12T05:34:17;3.17;;;0.80;;
38972;SDS011;25333;50.762;4.470;2023-04-12T05:36:43;3.47;;;0.63;;
38972;SDS011;25333;50.762;4.470;2023-04-12T05:39:09;2.20;;;0.80;;
38972;SDS011;25333;50.762;4.470;2023-04-12T05:41:34;1.65;;;0.57;;
38972;SDS011;25333;50.762;4.470;2023-04-12T05:44:00;3.27;;;0.60;;
38972;SDS011;25333;50.762;4.470;2023-04-12T05:46:27;3.50;;;0.95;;
38972;SDS011;25333;50.762;4.470;2023-04-12T05:48:54;2.25;;;0.60;;
38972;SDS011;25333;50.762;4.470;2023-04-12T05:51:21;3.95;;;0.52;;
38972;SDS011;25333;50.762;4.470;2023-04-12T05:53:46;3.20;;;0.60;;
38972;SDS011;25333;50.762;4.470;2023-04-12T05:56:12;3.47;;;0.57;;
38972;SDS011;25333;50.762;4.470;2023-04-12T05:58:37;5.47;;;0.77;;
38972;SDS011;25333;50.762;4.470;2023-04-12T06:01:04;3.28;;;0.80;;
38972;SDS011;25333;50.762;4.470;2023-04-12T06:03:31;5.23;;;1.13;;
38972;SDS011;25333;50.762;4.470;2023-04-12T06:05:57;3.10;;;0.70;;
38972;SDS011;25333;50.762;4.470;2023-04-12T06:08:23;3.97;;;0.90;;
38972;SDS011;25333;50.762;4.470;2023-04-12T06:10:48;3.57;;;1.17;;
38972;SDS011;25333;50.762;4.470;2023-04-12T06:13:14;4.68;;;0.90;;
38972;SDS011;25333;50.762;4.470;2023-04-12T06:15:40;3.47;;;0.80;;
38972;SDS011;25333;50.762;4.470;2023-04-12T06:18:06;3.67;;;1.08;;
38972;SDS011;25333;50.762;4.470;2023-04-12T06:20:33;5.30;;;0.68;;
38972;SDS011;25333;50.762;4.470;2023-04-12T06:22:58;3.30;;;0.90;;
38972;SDS011;25333;50.762;4.470;2023-04-12T06:25:24;3.88;;;0.85;;
38972;SDS011;25333;50.762;4.470;2023-04-12T06:27:50;3.27;;;0.80;;
38972;SDS011;25333;50.762;4.470;2023-04-12T06:30:17;3.20;;;0.77;;
38972;SDS011;25333;50.762;4.470;2023-04-12T06:32:44;4.70;;;0.70;;
38972;SDS011;25333;50.762;4.470;2023-04-12T06:35:09;5.27;;;0.93;;
38972;SDS011;25333;50.762;4.470;2023-04-12T06:37:35;3.30;;;0.50;;
38972;SDS011;25333;50.762;4.470;2023-04-12T06:40:00;3.43;;;0.77;;
38972;SDS011;25333;50.762;4.470;2023-04-12T06:42:26;3.67;;;0.60;;
38972;SDS011;25333;50.762;4.470;2023-04-12T06:44:52;3.73;;;0.70;;
38972;SDS011;25333;50.762;4.470;2023-04-12T06:47:17;5.28;;;1.10;;
38972;SDS011;25333;50.762;4.470;2023-04-12T06:49:43;2.23;;;0.80;;
38972;SDS011;25333;50.762;4.470;2023-04-12T06:52:08;2.95;;;0.68;;
38972;SDS011;25333;50.762;4.470;2023-04-12T06:54:37;4.43;;;1.10;;
38972;SDS011;25333;50.762;4.470;2023-04-12T06:57:07;5.72;;;0.82;;
38972;SDS011;25333;50.762;4.470;2023-04-12T06:59:37;5.07;;;1.08;;
38972;SDS011;25333;50.762;4.470;2023-04-12T07:02:03;6.72;;;1.00;;
38972;SDS011;25333;50.762;4.470;2023-04-12T07:04:30;3.33;;;0.80;;
38972;SDS011;25333;50.762;4.470;2023-04-12T07:06:56;5.15;;;1.25;;
38972;SDS011;25333;50.762;4.470;2023-04-12T07:09:21;4.30;;;0.90;;
38972;SDS011;25333;50.762;4.470;2023-04-12T07:11:48;8.98;;;1.70;;
38972;SDS011;25333;50.762;4.470;2023-04-12T07:14:13;7.67;;;1.47;;
38972;SDS011;25333;50.762;4.470;2023-04-12T07:16:41;3.90;;;1.00;;
38972;SDS011;25333;50.762;4.470;2023-04-12T07:19:07;6.97;;;1.10;;
38972;SDS011;25333;50.762;4.470;2023-04-12T07:21:34;8.77;;;1.35;;
38972;SDS011;25333;50.762;4.470;2023-04-12T07:24:00;7.70;;;1.60;;
38972;SDS011;25333;50.762;4.470;2023-04-12T07:26:28;7.85;;;1.30;;
38972;SDS011;25333;50.762;4.470;2023-04-12T07:28:55;6.95;;;1.30;;
38972;SDS011;25333;50.762;4.470;2023-04-12T07:31:20;7.57;;;1.80;;
38972;SDS011;25333;50.762;4.470;2023-04-12T07:33:47;9.00;;;1.60;;
38972;SDS011;25333;50.762;4.470;2023-04-12T07:36:13;6.53;;;1.48;;
38972;SDS011;25333;50.762;4.470;2023-04-12T07:38:40;7.30;;;1.40;;
38972;SDS011;25333;50.762;4.470;2023-04-12T07:41:06;5.30;;;1.10;;
38972;SDS011;25333;50.762;4.470;2023-04-12T07:43:32;5.25;;;1.20;;
38972;SDS011;25333;50.762;4.470;2023-04-12T07:46:00;6.15;;;1.10;;
38972;SDS011;25333;50.762;4.470;2023-04-12T07:48:31;6.88;;;0.82;;
38972;SDS011;25333;50.762;4.470;2023-04-12T07:50:57;7.07;;;1.30;;
38972;SDS011;25333;50.762;4.470;2023-04-12T07:53:27;6.60;;;1.05;;
38972;SDS011;25333;50.762;4.470;2023-04-12T07:55:55;6.00;;;1.30;;
38972;SDS011;25333;50.762;4.470;2023-04-12T07:58:22;9.45;;;1.40;;
38972;SDS011;25333;50.762;4.470;2023-04-12T08:00:49;7.30;;;1.70;;
38972;SDS011;25333;50.762;4.470;2023-04-12T08:03:15;7.38;;;1.67;;
38972;SDS011;25333;50.762;4.470;2023-04-12T08:05:42;5.88;;;1.33;;
38972;SDS011;25333;50.762;4.470;2023-04-12T08:08:10;11.05;;;2.00;;
38972;SDS011;25333;50.762;4.470;2023-04-12T08:10:36;9.27;;;1.70;;
38972;SDS011;25333;50.762;4.470;2023-04-12T08:13:03;4.88;;;1.10;;
38972;SDS011;25333;50.762;4.470;2023-04-12T08:15:29;4.88;;;1.52;;
38972;SDS011;25333;50.762;4.470;2023-04-12T08:17:55;5.77;;;1.47;;
38972;SDS011;25333;50.762;4.470;2023-04-12T08:20:21;6.95;;;1.45;;
38972;SDS011;25333;50.762;4.470;2023-04-12T08:22:47;7.90;;;1.80;;
38972;SDS011;25333;50.762;4.470;2023-04-12T08:25:13;12.55;;;2.58;;
38972;SDS011;25333;50.762;4.470;2023-04-12T08:27:42;7.00;;;1.65;;
38972;SDS011;25333;50.762;4.470;2023-04-12T08:30:08;7.30;;;2.08;;
38972;SDS011;25333;50.762;4.470;2023-04-12T08:32:34;5.80;;;1.48;;
38972;SDS011;25333;50.762;4.470;2023-04-12T08:35:01;5.73;;;1.80;;
38972;SDS011;25333;50.762;4.470;2023-04-12T08:37:29;10.32;;;1.92;;
38972;SDS011;25333;50.762;4.470;2023-04-12T08:39:55;3.80;;;1.23;;
38972;SDS011;25333;50.762;4.470;2023-04-12T08:42:23;9.80;;;1.80;;
38972;SDS011;25333;50.762;4.470;2023-04-12T08:44:48;11.13;;;1.93;;
38972;SDS011;25333;50.762;4.470;2023-04-12T08:47:16;11.00;;;2.35;;
38972;SDS011;25333;50.762;4.470;2023-04-12T08:49:41;7.15;;;1.80;;
38972;SDS011;25333;50.762;4.470;2023-04-12T08:52:08;16.13;;;2.80;;
38972;SDS011;25333;50.762;4.470;2023-04-12T08:54:35;10.30;;;2.08;;
38972;SDS011;25333;50.762;4.470;2023-04-12T08:57:04;4.28;;;1.17;;
38972;SDS011;25333;50.762;4.470;2023-04-12T08:59:31;8.63;;;1.90;;
38972;SDS011;25333;50.762;4.470;2023-04-12T09:02:05;10.10;;;1.80;;
38972;SDS011;25333;50.762;4.470;2023-04-12T09:04:31;10.88;;;2.30;;
38972;SDS011;25333;50.762;4.470;2023-04-12T09:06:56;10.43;;;1.70;;
38972;SDS011;25333;50.762;4.470;2023-04-12T09:12:11;6.82;;;1.85;;
38972;SDS011;25333;50.762;4.470;2023-04-12T09:14:37;9.05;;;1.92;;
38972;SDS011;25333;50.762;4.470;2023-04-12T09:17:04;8.73;;;1.85;;
38972;SDS011;25333;50.762;4.470;2023-04-12T09:19:45;9.05;;;1.77;;
38972;SDS011;25333;50.762;4.470;2023-04-12T09:22:10;8.27;;;1.73;;
38972;SDS011;25333;50.762;4.470;2023-04-12T09:24:46;9.23;;;1.83;;
38972;SDS011;25333;50.762;4.470;2023-04-12T09:27:14;5.72;;;1.38;;
38972;SDS011;25333;50.762;4.470;2023-04-12T09:29:40;10.82;;;1.60;;
38972;SDS011;25333;50.762;4.470;2023-04-12T09:32:06;8.77;;;1.63;;
38972;SDS011;25333;50.762;4.470;2023-04-12T09:34:33;7.70;;;1.33;;
38972;SDS011;25333;50.762;4.470;2023-04-12T09:37:11;10.35;;;1.70;;
38972;SDS011;25333;50.762;4.470;2023-04-12T09:39:40;6.50;;;1.50;;
38972;SDS011;25333;50.762;4.470;2023-04-12T09:42:10;9.82;;;1.83;;
38972;SDS011;25333;50.762;4.470;2023-04-12T09:44:36;6.57;;;1.75;;
38972;SDS011;25333;50.762;4.470;2023-04-12T09:47:03;5.43;;;1.20;;
38972;SDS011;25333;50.762;4.470;2023-04-12T09:49:40;6.00;;;2.05;;
38972;SDS011;25333;50.762;4.470;2023-04-12T09:52:07;7.32;;;1.70;;
38972;SDS011;25333;50.762;4.470;2023-04-12T09:54:42;8.60;;;2.15;;
38972;SDS011;25333;50.762;4.470;2023-04-12T09:57:09;9.85;;;2.30;;
38972;SDS011;25333;50.762;4.470;2023-04-12T09:59:36;6.47;;;1.77;;
38972;SDS011;25333;50.762;4.470;2023-04-12T10:02:06;6.78;;;2.03;;
38972;SDS011;25333;50.762;4.470;2023-04-12T10:04:38;11.13;;;2.17;;
38972;SDS011;25333;50.762;4.470;2023-04-12T10:07:05;4.78;;;1.67;;
38972;SDS011;25333;50.762;4.470;2023-04-12T10:09:36;6.57;;;1.53;;
38972;SDS011;25333;50.762;4.470;2023-04-12T10:12:02;6.85;;;2.00;;
38972;SDS011;25333;50.762;4.470;2023-04-12T10:14:29;7.63;;;2.40;;
38972;SDS011;25333;50.762;4.470;2023-04-12T10:16:56;6.10;;;1.23;;
38972;SDS011;25333;50.762;4.470;2023-04-12T10:19:23;4.82;;;1.13;;
38972;SDS011;25333;50.762;4.470;2023-04-12T10:21:50;8.65;;;1.67;;
38972;SDS011;25333;50.762;4.470;2023-04-12T10:24:16;7.13;;;1.83;;
38972;SDS011;25333;50.762;4.470;2023-04-12T10:26:42;6.70;;;2.13;;
38972;SDS011;25333;50.762;4.470;2023-04-12T10:29:21;7.00;;;1.30;;
38972;SDS011;25333;50.762;4.470;2023-04-12T10:31:51;6.70;;;1.83;;
38972;SDS011;25333;50.762;4.470;2023-04-12T10:34:27;4.20;;;1.10;;
38972;SDS011;25333;50.762;4.470;2023-04-12T10:36:55;7.78;;;2.03;;
38972;SDS011;25333;50.762;4.470;2023-04-12T10:45:38;11.15;;;2.55;;
38972;SDS011;25333;50.762;4.470;2023-04-12T10:50:29;7.57;;;1.83;;
38972;SDS011;25333;50.762;4.470;2023-04-12T10:55:37;7.38;;;1.73;;
38972;SDS011;25333;50.762;4.470;2023-04-12T10:58:03;8.18;;;2.35;;
38972;SDS011;25333;50.762;4.470;2023-04-12T11:03:19;9.15;;;2.80;;
38972;SDS011;25333;50.762;4.470;2023-04-12T11:06:02;5.65;;;1.55;;
38972;SDS011;25333;50.762;4.470;2023-04-12T11:08:29;6.53;;;1.25;;
38972;SDS011;25333;50.762;4.470;2023-04-12T11:11:02;7.22;;;1.88;;
38972;SDS011;25333;50.762;4.470;2023-04-12T11:13:37;6.45;;;1.95;;
38972;SDS011;25333;50.762;4.470;2023-04-12T11:16:04;7.07;;;1.52;;
38972;SDS011;25333;50.762;4.470;2023-04-12T11:18:33;9.55;;;1.83;;
38972;SDS011;25333;50.762;4.470;2023-04-12T11:20:59;7.88;;;1.90;;
38972;SDS011;25333;50.762;4.470;2023-04-12T11:23:27;6.80;;;1.45;;
38972;SDS011;25333;50.762;4.470;2023-04-12T11:25:54;8.60;;;2.05;;
38972;SDS011;25333;50.762;4.470;2023-04-12T11:28:21;6.30;;;1.25;;
38972;SDS011;25333;50.762;4.470;2023-04-12T11:30:55;6.68;;;1.50;;
38972;SDS011;25333;50.762;4.470;2023-04-12T11:33:34;9.50;;;1.40;;
38972;SDS011;25333;50.762;4.470;2023-04-12T11:36:10;8.10;;;2.30;;
38972;SDS011;25333;50.762;4.470;2023-04-12T11:38:37;6.85;;;1.98;;
38972;SDS011;25333;50.762;4.470;2023-04-12T11:41:04;4.43;;;1.23;;
38972;SDS011;25333;50.762;4.470;2023-04-12T11:43:32;5.07;;;0.85;;
38972;SDS011;25333;50.762;4.470;2023-04-12T11:45:59;6.32;;;1.23;;
38972;SDS011;25333;50.762;4.470;2023-04-12T11:48:26;3.37;;;1.00;;
38972;SDS011;25333;50.762;4.470;2023-04-12T11:50:52;4.50;;;0.73;;
38972;SDS011;25333;50.762;4.470;2023-04-12T11:53:18;4.72;;;0.88;;
38972;SDS011;25333;50.762;4.470;2023-04-12T11:55:48;6.80;;;0.90;;
38972;SDS011;25333;50.762;4.470;2023-04-12T11:58:14;2.90;;;0.70;;
38972;SDS011;25333;50.762;4.470;2023-04-12T12:00:41;1.98;;;0.40;;
38972;SDS011;25333;50.762;4.470;2023-04-12T12:03:08;6.55;;;1.00;;
38972;SDS011;25333;50.762;4.470;2023-04-12T12:05:38;3.80;;;0.57;;
38972;SDS011;25333;50.762;4.470;2023-04-12T12:08:05;2.35;;;0.80;;
38972;SDS011;25333;50.762;4.470;2023-04-12T12:10:35;2.13;;;0.70;;
38972;SDS011;25333;50.762;4.470;2023-04-12T12:13:02;3.63;;;0.57;;
38972;SDS011;25333;50.762;4.470;2023-04-12T12:15:29;4.57;;;0.75;;
38972;SDS011;25333;50.762;4.470;2023-04-12T12:17:55;3.10;;;0.35;;
38972;SDS011;25333;50.762;4.470;2023-04-12T12:20:21;4.13;;;0.88;;
38972;SDS011;25333;50.762;4.470;2023-04-12T12:22:48;4.80;;;0.93;;
38972;SDS011;25333;50.762;4.470;2023-04-12T12:25:16;3.13;;;0.52;;
38972;SDS011;25333;50.762;4.470;2023-04-12T12:27:42;10.00;;;1.15;;
38972;SDS011;25333;50.762;4.470;2023-04-12T12:30:12;6.55;;;1.02;;
38972;SDS011;25333;50.762;4.470;2023-04-12T12:32:41;8.60;;;1.70;;
38972;SDS011;25333;50.762;4.470;2023-04-12T12:35:11;2.38;;;0.50;;
38972;SDS011;25333;50.762;4.470;2023-04-12T12:37:46;3.40;;;0.80;;
38972;SDS011;25333;50.762;4.470;2023-04-12T12:40:14;2.33;;;0.60;;
38972;SDS011;25333;50.762;4.470;2023-04-12T12:45:15;2.45;;;0.75;;
38972;SDS011;25333;50.762;4.470;2023-04-12T12:47:47;3.57;;;0.80;;
38972;SDS011;25333;50.762;4.470;2023-04-12T12:50:17;4.20;;;1.27;;
38972;SDS011;25333;50.762;4.470;2023-04-12T12:52:45;3.70;;;0.43;;
38972;SDS011;25333;50.762;4.470;2023-04-12T12:55:12;3.70;;;0.60;;
38972;SDS011;25333;50.762;4.470;2023-04-12T12:57:38;2.60;;;0.52;;
38972;SDS011;25333;50.762;4.470;2023-04-12T13:00:06;2.70;;;0.50;;
38972;SDS011;25333;50.762;4.470;2023-04-12T13:02:33;2.55;;;0.43;;
38972;SDS011;25333;50.762;4.470;2023-04-12T13:05:00;0.85;;;0.10;;
38972;SDS011;25333;50.762;4.470;2023-04-12T13:07:26;2.50;;;0.50;;
38972;SDS011;25333;50.762;4.470;2023-04-12T13:09:52;2.22;;;0.32;;
38972;SDS011;25333;50.762;4.470;2023-04-12T13:12:18;1.73;;;0.50;;
38972;SDS011;25333;50.762;4.470;2023-04-12T13:14:45;3.35;;;0.50;;
38972;SDS011;25333;50.762;4.470;2023-04-12T13:17:11;1.50;;;0.60;;
38972;SDS011;25333;50.762;4.470;2023-04-12T13:19:38;1.35;;;0.30;;
38972;SDS011;25333;50.762;4.470;2023-04-12T13:22:04;1.67;;;0.28;;
38972;SDS011;25333;50.762;4.470;2023-04-12T13:24:31;3.65;;;0.60;;
38972;SDS011;25333;50.762;4.470;2023-04-12T13:26:56;1.50;;;0.20;;
38972;SDS011;25333;50.762;4.470;2023-04-12T13:29:22;2.45;;;0.40;;
38972;SDS011;25333;50.762;4.470;2023-04-12T13:31:47;1.00;;;0.20;;
38972;SDS011;25333;50.762;4.470;2023-04-12T13:34:13;1.10;;;0.38;;
38972;SDS011;25333;50.762;4.470;2023-04-12T13:36:39;3.45;;;0.38;;
38972;SDS011;25333;50.762;4.470;2023-04-12T13:39:05;0.50;;;0.20;;
38972;SDS011;25333;50.762;4.470;2023-04-12T13:41:31;3.10;;;0.57;;
38972;SDS011;25333;50.762;4.470;2023-04-12T13:43:58;1.42;;;0.30;;
38972;SDS011;25333;50.762;4.470;2023-04-12T13:46:24;1.58;;;0.22;;
38972;SDS011;25333;50.762;4.470;2023-04-12T13:48:49;2.13;;;0.30;;
38972;SDS011;25333;50.762;4.470;2023-04-12T13:51:15;2.50;;;0.60;;
38972;SDS011;25333;50.762;4.470;2023-04-12T13:53:42;2.13;;;0.40;;
38972;SDS011;25333;50.762;4.470;2023-04-12T13:56:07;2.38;;;0.50;;
38972;SDS011;25333;50.762;4.470;2023-04-12T13:58:33;3.92;;;0.70;;
38972;SDS011;25333;50.762;4.470;2023-04-12T14:00:59;3.07;;;0.60;;
38972;SDS011;25333;50.762;4.470;2023-04-12T14:03:24;2.08;;;0.30;;
38972;SDS011;25333;50.762;4.470;2023-04-12T14:05:50;3.60;;;0.47;;
38972;SDS011;25333;50.762;4.470;2023-04-12T14:08:16;2.10;;;0.30;;
38972;SDS011;25333;50.762;4.470;2023-04-12T14:10:41;2.15;;;0.55;;
38972;SDS011;25333;50.762;4.470;2023-04-12T14:13:07;1.37;;;0.30;;
38972;SDS011;25333;50.762;4.470;2023-04-12T14:15:33;1.27;;;0.40;;
38972;SDS011;25333;50.762;4.470;2023-04-12T14:17:58;1.00;;;0.30;;
38972;SDS011;25333;50.762;4.470;2023-04-12T14:20:24;1.02;;;0.17;;
38972;SDS011;25333;50.762;4.470;2023-04-12T14:22:50;2.83;;;0.30;;
38972;SDS011;25333;50.762;4.470;2023-04-12T14:25:15;1.38;;;0.38;;
38972;SDS011;25333;50.762;4.470;2023-04-12T14:27:41;2.37;;;0.77;;
38972;SDS011;25333;50.762;4.470;2023-04-12T14:30:08;2.25;;;0.25;;
38972;SDS011;25333;50.762;4.470;2023-04-12T14:32:33;2.80;;;0.55;;
38972;SDS011;25333;50.762;4.470;2023-04-12T14:34:59;4.60;;;0.90;;
38972;SDS011;25333;50.762;4.470;2023-04-12T14:37:25;3.58;;;0.88;;
38972;SDS011;25333;50.762;4.470;2023-04-12T14:39:54;3.20;;;0.82;;
38972;SDS011;25333;50.762;4.470;2023-04-12T14:42:20;1.92;;;0.60;;
38972;SDS011;25333;50.762;4.470;2023-04-12T14:44:45;4.60;;;0.87;;
38972;SDS011;25333;50.762;4.470;2023-04-12T14:47:11;5.20;;;0.50;;
38972;SDS011;25333;50.762;4.470;2023-04-12T14:49:36;3.13;;;0.50;;
38972;SDS011;25333;50.762;4.470;2023-04-12T14:52:02;2.95;;;0.45;;
38972;SDS011;25333;50.762;4.470;2023-04-12T14:54:28;1.30;;;0.40;;
38972;SDS011;25333;50.762;4.470;2023-04-12T14:56:54;2.22;;;0.43;;
38972;SDS011;25333;50.762;4.470;2023-04-12T14:59:20;3.20;;;0.30;;
38972;SDS011;25333;50.762;4.470;2023-04-12T15:01:46;1.33;;;0.50;;
38972;SDS011;25333;50.762;4.470;2023-04-12T15:04:11;0.87;;;0.23;;
38972;SDS011;25333;50.762;4.470;2023-04-12T15:06:37;2.42;;;0.40;;
38972;SDS011;25333;50.762;4.470;2023-04-12T15:09:06;1.63;;;0.35;;
38972;SDS011;25333;50.762;4.470;2023-04-12T15:11:33;1.67;;;0.30;;
38972;SDS011;25333;50.762;4.470;2023-04-12T15:13:59;2.42;;;0.40;;
38972;SDS011;25333;50.762;4.470;2023-04-12T15:16:26;3.40;;;0.60;;
38972;SDS011;25333;50.762;4.470;2023-04-12T15:18:52;5.18;;;1.13;;